createdAt,value
2018-08-23T00:00:39.890Z,8.40
2018-08-23T00:03:14.576Z,8.23
2018-08-23T00:05:50.260Z,7.67
2018-08-23T00:08:18.763Z,7.50
2018-08-23T00:10:47.730Z,7.58
2018-08-23T00:13:16.032Z,7.30
2018-08-23T00:15:44.309Z,6.95
2018-08-23T00:18:12.588Z,7.35
2018-08-23T00:20:41.309Z,7.72
2018-08-23T00:23:09.594Z,7.20
2018-08-23T00:25:38.395Z,7.85
2018-08-23T00:28:07.152Z,8.18
2018-08-23T00:30:35.736Z,8.00
2018-08-23T00:33:05.035Z,7.15
2018-08-23T00:35:36.066Z,7.22
2018-08-23T00:38:05.081Z,7.80
2018-08-23T00:40:36.298Z,7.70
2018-08-23T00:43:05.214Z,8.25
2018-08-23T00:45:33.416Z,7.62
2018-08-23T00:48:01.635Z,7.80
2018-08-23T00:51:05.980Z,8.80
2018-08-23T00:53:35.374Z,8.15
2018-08-23T00:56:21.242Z,8.43
2018-08-23T00:58:55.795Z,8.45
2018-08-23T01:01:24.011Z,7.80
2018-08-23T01:03:52.482Z,7.87
2018-08-23T01:06:24.459Z,7.85
2018-08-23T01:08:52.711Z,7.10
2018-08-23T01:11:20.920Z,7.55
2018-08-23T01:13:49.170Z,7.15
2018-08-23T01:16:17.372Z,7.33
2018-08-23T01:18:45.604Z,7.45
2018-08-23T01:21:13.834Z,7.45
2018-08-23T01:23:42.861Z,7.60
2018-08-23T01:26:11.123Z,6.87
2018-08-23T01:28:39.385Z,8.10
2018-08-23T01:31:22.386Z,8.08
2018-08-23T01:33:53.206Z,7.92
2018-08-23T01:36:25.739Z,7.58
2018-08-23T01:38:54.100Z,7.72
2018-08-23T01:41:22.344Z,7.65
2018-08-23T01:43:50.611Z,7.05
2018-08-23T01:46:18.852Z,7.17
2018-08-23T01:48:50.487Z,7.28
2018-08-23T01:51:18.712Z,7.12
2018-08-23T01:53:48.986Z,6.87
2018-08-23T01:56:17.868Z,7.67
2018-08-23T01:58:46.185Z,7.72
2018-08-23T02:01:16.497Z,7.40
2018-08-23T02:03:45.180Z,8.03
2018-08-23T02:06:13.417Z,7.58
2018-08-23T02:08:43.169Z,7.62
2018-08-23T02:11:11.410Z,7.83
2018-08-23T02:13:39.740Z,7.75
2018-08-23T02:16:07.993Z,7.10
2018-08-23T02:18:36.257Z,8.33
2018-08-23T02:21:09.396Z,7.92
2018-08-23T02:23:42.687Z,7.28
2018-08-23T02:26:10.981Z,8.33
2018-08-23T02:28:39.245Z,7.67
2018-08-23T02:31:07.488Z,7.78
2018-08-23T02:33:35.712Z,8.38
2018-08-23T02:36:18.698Z,8.45
2018-08-23T02:41:37.466Z,8.58
2018-08-23T02:44:05.719Z,7.53
2018-08-23T02:46:33.985Z,7.65
2018-08-23T02:49:02.247Z,7.92
2018-08-23T02:51:41.498Z,8.60
2018-08-23T02:54:11.809Z,8.48
2018-08-23T02:56:40.795Z,8.28
2018-08-23T02:59:09.015Z,8.13
2018-08-23T03:01:40.840Z,8.68
2018-08-23T03:04:13.408Z,8.55
2018-08-23T03:06:55.872Z,7.72
2018-08-23T03:09:26.252Z,8.20
2018-08-23T03:11:55.760Z,8.63
2018-08-23T03:14:24.905Z,9.08
2018-08-23T03:17:33.245Z,8.68
2018-08-23T03:20:03.881Z,9.00
2018-08-23T03:22:33.198Z,9.20
2018-08-23T03:25:03.949Z,9.18
2018-08-23T03:27:32.415Z,9.33
2018-08-23T03:30:01.413Z,8.75
2018-08-23T03:32:29.905Z,9.33
2018-08-23T03:34:58.604Z,8.95
2018-08-23T03:37:26.872Z,8.63
2018-08-23T03:39:55.352Z,9.05
2018-08-23T03:42:23.842Z,8.73
2018-08-23T03:44:53.136Z,9.70
2018-08-23T03:47:21.515Z,9.10
2018-08-23T03:49:50.021Z,9.03
2018-08-23T03:52:19.667Z,9.80
2018-08-23T03:55:05.376Z,9.25
2018-08-23T03:57:38.879Z,10.03
2018-08-23T04:00:07.214Z,8.80
2018-08-23T04:02:35.431Z,9.90
2018-08-23T04:05:11.275Z,9.40
2018-08-23T04:07:40.312Z,9.80
2018-08-23T04:10:08.691Z,8.98
2018-08-23T04:12:38.725Z,9.05
2018-08-23T04:15:19.592Z,9.15
2018-08-23T04:17:48.492Z,9.53
2018-08-23T04:20:16.809Z,10.03
2018-08-23T04:22:45.028Z,9.25
2018-08-23T04:25:13.257Z,9.33
2018-08-23T04:27:41.499Z,9.23
2018-08-23T04:30:10.097Z,9.73
2018-08-23T04:32:41.956Z,9.50
2018-08-23T04:35:18.399Z,9.53
2018-08-23T04:37:46.813Z,9.78
2018-08-23T04:40:15.045Z,9.20
2018-08-23T04:42:43.275Z,9.68
2018-08-23T04:45:13.589Z,9.65
2018-08-23T04:47:52.481Z,10.20
2018-08-23T04:50:20.996Z,10.32
2018-08-23T04:52:49.237Z,9.93
2018-08-23T04:55:17.529Z,9.35
2018-08-23T04:57:45.771Z,9.68
2018-08-23T05:00:13.997Z,10.23
2018-08-23T05:02:42.247Z,10.25
2018-08-23T05:05:10.469Z,9.48
2018-08-23T05:07:38.711Z,9.75
2018-08-23T05:10:06.951Z,9.90
2018-08-23T05:12:35.267Z,9.65
2018-08-23T05:15:03.506Z,9.20
2018-08-23T05:17:31.754Z,10.15
2018-08-23T05:20:00.045Z,9.43
2018-08-23T05:22:28.330Z,11.68
2018-08-23T05:25:02.073Z,10.70
2018-08-23T05:27:30.315Z,10.45
2018-08-23T05:29:58.530Z,9.78
2018-08-23T05:32:26.784Z,10.03
2018-08-23T05:34:55.022Z,10.18
2018-08-23T05:37:23.308Z,10.60
2018-08-23T05:39:52.558Z,9.83
2018-08-23T05:42:33.437Z,10.20
2018-08-23T05:45:01.671Z,10.10
2018-08-23T05:47:29.929Z,9.58
2018-08-23T05:49:58.165Z,10.28
2018-08-23T05:52:26.399Z,10.58
2018-08-23T05:54:55.238Z,11.08
2018-08-23T05:57:23.499Z,10.00
2018-08-23T05:59:51.760Z,10.53
2018-08-23T06:02:20.035Z,10.72
2018-08-23T06:04:48.294Z,10.45
2018-08-23T06:07:16.619Z,10.10
2018-08-23T06:09:44.861Z,9.85
2018-08-23T06:12:13.138Z,9.43
2018-08-23T06:14:41.430Z,9.05
2018-08-23T06:17:09.667Z,9.05
2018-08-23T06:19:38.131Z,9.18
2018-08-23T06:22:06.363Z,9.15
2018-08-23T06:24:34.594Z,9.33
2018-08-23T06:27:03.390Z,9.45
2018-08-23T06:29:33.648Z,8.75
2018-08-23T06:32:10.024Z,10.00
2018-08-23T06:34:51.082Z,8.55
2018-08-23T06:37:20.263Z,9.40
2018-08-23T06:39:48.485Z,9.28
2018-08-23T06:42:16.731Z,9.50
2018-08-23T06:44:51.203Z,8.85
2018-08-23T06:47:20.887Z,9.38
2018-08-23T06:49:50.290Z,9.20
2018-08-23T06:52:35.149Z,8.33
2018-08-23T06:55:03.920Z,8.95
2018-08-23T06:57:42.142Z,8.70
2018-08-23T07:00:10.388Z,9.00
2018-08-23T07:02:44.163Z,9.20
2018-08-23T07:05:12.400Z,9.53
2018-08-23T07:07:40.632Z,8.55
2018-08-23T07:10:08.876Z,9.20
2018-08-23T07:12:37.108Z,9.05
2018-08-23T07:15:05.405Z,8.18
2018-08-23T07:17:33.652Z,8.68
2018-08-23T07:20:04.143Z,8.73
2018-08-23T07:22:34.492Z,8.13
2018-08-23T07:25:02.764Z,8.45
2018-08-23T07:27:31.011Z,9.08
2018-08-23T07:29:59.935Z,8.20
2018-08-23T07:32:29.094Z,9.13
2018-08-23T07:35:05.292Z,8.58
2018-08-23T07:37:34.806Z,8.55
2018-08-23T07:40:09.273Z,6.75
2018-08-23T07:42:38.206Z,7.15
2018-08-23T07:45:07.192Z,6.65
2018-08-23T07:47:37.852Z,6.67
2018-08-23T07:50:06.743Z,6.40
2018-08-23T07:52:35.044Z,6.90
2018-08-23T07:55:04.762Z,7.22
2018-08-23T07:57:34.043Z,6.90
2018-08-23T08:00:06.643Z,7.47
2018-08-23T08:02:34.884Z,7.80
2018-08-23T08:05:03.165Z,7.58
2018-08-23T08:07:32.290Z,7.05
2018-08-23T08:10:01.369Z,7.00
2018-08-23T08:12:39.592Z,6.72
2018-08-23T08:15:10.442Z,6.85
2018-08-23T08:17:38.560Z,6.90
2018-08-23T08:20:08.096Z,6.85
2018-08-23T08:22:36.349Z,6.85
2018-08-23T08:25:09.291Z,7.50
2018-08-23T08:27:38.184Z,7.30
2018-08-23T08:30:09.204Z,7.53
2018-08-23T08:32:37.462Z,7.30
2018-08-23T08:35:05.712Z,7.62
2018-08-23T08:37:33.986Z,8.18
2018-08-23T08:40:02.210Z,7.22
2018-08-23T08:42:31.768Z,7.45
2018-08-23T08:45:15.444Z,7.30
2018-08-23T08:47:44.900Z,7.47
2018-08-23T08:50:13.107Z,7.17
2018-08-23T08:52:41.338Z,7.10
2018-08-23T08:55:12.192Z,7.25
2018-08-23T08:57:41.127Z,7.53
2018-08-23T09:00:09.665Z,8.05
2018-08-23T09:02:37.903Z,7.17
2018-08-23T09:05:06.394Z,6.85
2018-08-23T09:07:35.535Z,7.33
2018-08-23T09:10:03.807Z,6.62
2018-08-23T09:12:32.716Z,7.35
2018-08-23T09:15:00.935Z,7.55
2018-08-23T09:17:38.600Z,7.15
2018-08-23T09:20:14.764Z,7.50
2018-08-23T09:22:48.165Z,7.03
2018-08-23T09:25:22.229Z,7.37
2018-08-23T09:27:50.957Z,7.00
2018-08-23T09:30:24.619Z,7.15
2018-08-23T09:32:52.863Z,6.37
2018-08-23T09:35:24.193Z,6.87
2018-08-23T09:37:56.392Z,6.90
2018-08-23T09:40:25.155Z,6.40
2018-08-23T09:42:53.450Z,6.60
2018-08-23T09:45:21.595Z,6.58
2018-08-23T09:47:49.862Z,6.62
2018-08-23T09:50:18.147Z,6.08
2018-08-23T09:52:47.580Z,6.40
2018-08-23T09:55:16.971Z,6.10
2018-08-23T09:57:45.680Z,6.22
2018-08-23T10:00:15.301Z,6.03
2018-08-23T10:02:48.922Z,6.22
2018-08-23T10:05:22.625Z,6.30
2018-08-23T10:07:56.332Z,7.42
2018-08-23T10:10:30.150Z,6.60
2018-08-23T10:13:03.737Z,6.78
2018-08-23T10:15:37.343Z,6.00
2018-08-23T10:19:10.899Z,6.47
2018-08-23T10:21:44.630Z,6.87
2018-08-23T10:24:18.297Z,7.25
2018-08-23T10:26:46.532Z,6.65
2018-08-23T10:29:14.769Z,7.00
2018-08-23T10:31:42.970Z,6.47
2018-08-23T10:34:11.192Z,6.17
2018-08-23T10:36:39.441Z,6.95
2018-08-23T10:39:09.524Z,6.95
2018-08-23T10:41:37.744Z,6.50
2018-08-23T10:44:06.273Z,6.65
2018-08-23T10:46:40.009Z,6.35
2018-08-23T10:49:08.266Z,6.75
2018-08-23T10:51:36.492Z,6.83
2018-08-23T10:54:04.715Z,6.17
2018-08-23T10:56:32.942Z,6.60
2018-08-23T10:59:01.198Z,6.70
2018-08-23T11:01:29.360Z,6.92
2018-08-23T11:04:01.820Z,6.30
2018-08-23T11:06:30.040Z,6.33
2018-08-23T11:09:03.712Z,6.62
2018-08-23T11:11:33.444Z,7.03
2018-08-23T11:14:07.078Z,6.50
2018-08-23T11:16:40.673Z,6.60
2018-08-23T11:19:14.137Z,6.60
2018-08-23T11:21:42.367Z,7.03
2018-08-23T11:24:10.598Z,7.10
2018-08-23T11:26:38.869Z,6.75
2018-08-23T11:29:07.078Z,6.92
2018-08-23T11:31:35.338Z,6.75
2018-08-23T11:34:03.580Z,6.65
2018-08-23T11:36:31.833Z,7.08
2018-08-23T11:39:00.089Z,6.53
2018-08-23T11:41:28.323Z,6.83
2018-08-23T11:43:56.549Z,7.10
2018-08-23T11:46:24.783Z,6.70
2018-08-23T11:48:53.096Z,7.50
2018-08-23T11:51:21.287Z,6.10
2018-08-23T11:53:49.553Z,6.67
2018-08-23T11:56:17.750Z,6.95
2018-08-23T11:58:46.005Z,6.83
2018-08-23T12:01:15.745Z,6.62
2018-08-23T12:03:44.311Z,6.60
2018-08-23T12:06:13.825Z,6.42
2018-08-23T12:08:42.530Z,6.70
2018-08-23T12:11:10.795Z,6.40
2018-08-23T12:13:39.020Z,6.75
2018-08-23T12:16:09.226Z,6.58
2018-08-23T12:18:38.223Z,6.35
2018-08-23T12:21:06.533Z,6.00
2018-08-23T12:23:34.953Z,6.20
2018-08-23T12:26:03.314Z,6.20
2018-08-23T12:28:36.795Z,5.80
2018-08-23T12:31:05.060Z,6.05
2018-08-23T12:33:33.323Z,6.20
2018-08-23T12:36:01.899Z,5.80
2018-08-23T12:38:35.319Z,5.70
2018-08-23T12:41:09.044Z,6.03
2018-08-23T12:43:50.936Z,5.75
2018-08-23T12:46:19.245Z,5.50
2018-08-23T12:48:47.683Z,5.70
2018-08-23T12:51:16.238Z,5.95
2018-08-23T12:53:44.514Z,5.42
2018-08-23T12:56:12.822Z,5.83
2018-08-23T12:58:41.017Z,5.35
2018-08-23T13:01:09.272Z,5.67
2018-08-23T13:03:37.532Z,5.50
2018-08-23T13:06:05.768Z,5.72
2018-08-23T13:08:34.028Z,5.37
2018-08-23T13:11:02.277Z,5.20
2018-08-23T13:13:30.970Z,5.15
2018-08-23T13:15:59.216Z,5.28
2018-08-23T13:18:27.494Z,5.60
2018-08-23T13:20:55.733Z,5.35
2018-08-23T13:23:23.991Z,5.20
2018-08-23T13:25:57.522Z,5.87
2018-08-23T13:28:26.926Z,5.45
2018-08-23T13:30:55.187Z,5.55
2018-08-23T13:33:24.306Z,4.80
2018-08-23T13:35:52.501Z,4.80
2018-08-23T13:38:20.785Z,4.80
2018-08-23T13:40:49.569Z,5.75
2018-08-23T13:43:17.811Z,5.08
2018-08-23T13:45:46.086Z,5.00
2018-08-23T13:48:14.342Z,5.05
2018-08-23T13:50:42.549Z,4.97
2018-08-23T13:53:10.775Z,4.92
2018-08-23T13:55:39.154Z,5.03
2018-08-23T13:58:07.398Z,5.22
2018-08-23T14:00:40.719Z,5.40
2018-08-23T14:03:10.162Z,5.00
2018-08-23T14:05:39.641Z,4.80
2018-08-23T14:08:08.314Z,5.15
2018-08-23T14:10:36.539Z,5.10
2018-08-23T14:13:05.008Z,5.12
2018-08-23T14:15:38.664Z,4.97
2018-08-23T14:18:06.946Z,4.95
2018-08-23T14:20:35.267Z,5.22
2018-08-23T14:23:03.496Z,5.17
2018-08-23T14:25:31.741Z,5.15
2018-08-23T14:28:00.005Z,4.67
2018-08-23T14:30:28.543Z,4.30
2018-08-23T14:32:56.904Z,5.00
2018-08-23T14:35:25.520Z,5.10
2018-08-23T14:37:53.772Z,4.85
2018-08-23T14:40:22.029Z,4.72
2018-08-23T14:42:50.231Z,5.00
2018-08-23T14:45:24.027Z,4.83
2018-08-23T14:47:57.699Z,5.25
2018-08-23T14:50:25.943Z,4.83
2018-08-23T14:52:54.186Z,5.45
2018-08-23T14:56:29.759Z,4.20
2018-08-23T14:58:57.990Z,4.90
2018-08-23T15:01:26.228Z,4.80
2018-08-23T15:03:54.451Z,4.55
2018-08-23T15:06:22.727Z,4.62
2018-08-23T15:08:51.007Z,4.58
2018-08-23T15:11:19.244Z,4.47
2018-08-23T15:13:47.491Z,4.70
2018-08-23T15:16:15.727Z,5.03
2018-08-23T15:18:43.969Z,4.40
2018-08-23T15:21:12.207Z,4.50
2018-08-23T15:23:40.452Z,4.33
2018-08-23T15:26:08.747Z,4.45
2018-08-23T15:28:36.943Z,4.30
2018-08-23T15:31:05.205Z,4.47
2018-08-23T15:33:33.461Z,4.30
2018-08-23T15:36:01.699Z,4.30
2018-08-23T15:38:29.972Z,4.25
2018-08-23T15:40:58.235Z,4.45
2018-08-23T15:43:26.451Z,4.20
2018-08-23T15:45:54.693Z,4.65
2018-08-23T15:48:22.968Z,4.58
2018-08-23T15:50:51.231Z,4.55
2018-08-23T15:53:19.482Z,4.85
2018-08-23T15:55:47.797Z,4.40
2018-08-23T15:58:16.035Z,4.40
2018-08-23T16:00:44.264Z,4.60
2018-08-23T16:03:12.473Z,4.60
2018-08-23T16:05:40.727Z,5.00
2018-08-23T16:08:08.955Z,4.37
2018-08-23T16:10:37.286Z,4.28
2018-08-23T16:13:05.521Z,4.87
2018-08-23T16:15:33.968Z,5.08
2018-08-23T16:18:07.600Z,4.75
2018-08-23T16:20:41.364Z,4.67
2018-08-23T16:23:09.600Z,4.60
2018-08-23T16:25:41.700Z,4.22
2018-08-23T16:28:10.032Z,4.50
2018-08-23T16:30:40.635Z,4.80
2018-08-23T16:33:09.001Z,4.78
2018-08-23T16:35:37.272Z,4.62
2018-08-23T16:38:05.548Z,4.47
2018-08-23T16:40:33.799Z,4.37
2018-08-23T16:43:03.446Z,4.83
2018-08-23T16:45:31.709Z,4.45
2018-08-23T16:47:59.929Z,4.72
2018-08-23T16:50:28.950Z,4.85
2018-08-23T16:52:57.226Z,4.40
2018-08-23T16:55:25.438Z,3.33
2018-08-23T16:57:53.713Z,3.75
2018-08-23T17:00:21.974Z,3.67
2018-08-23T17:02:50.234Z,3.52
2018-08-23T17:05:18.462Z,3.62
2018-08-23T17:07:46.688Z,3.35
2018-08-23T17:10:15.017Z,3.25
2018-08-23T17:12:43.271Z,3.72
2018-08-23T17:15:14.462Z,3.37
2018-08-23T17:17:48.244Z,3.08
2018-08-23T17:20:16.928Z,3.50
2018-08-23T17:22:45.175Z,3.58
2018-08-23T17:25:13.483Z,3.65
2018-08-23T17:27:41.688Z,3.50
2018-08-23T17:30:09.937Z,3.58
2018-08-23T17:32:38.217Z,3.55
2018-08-23T17:35:06.529Z,3.30
2018-08-23T17:37:34.788Z,3.83
2018-08-23T17:40:03.452Z,3.30
2018-08-23T17:42:37.112Z,3.83
2018-08-23T17:45:05.355Z,4.05
2018-08-23T17:47:33.708Z,3.83
2018-08-23T17:50:01.993Z,4.40
2018-08-23T17:52:30.262Z,4.15
2018-08-23T17:54:58.531Z,3.92
2018-08-23T17:57:26.766Z,4.42
2018-08-23T17:59:55.001Z,4.40
2018-08-23T18:02:23.510Z,4.03
2018-08-23T18:04:52.198Z,4.35
2018-08-23T18:07:20.446Z,4.05
2018-08-23T18:09:48.668Z,3.80
2018-08-23T18:12:16.886Z,4.53
2018-08-23T18:14:45.145Z,3.67
2018-08-23T18:17:13.387Z,3.33
2018-08-23T18:19:41.630Z,3.30
2018-08-23T18:22:09.862Z,3.42
2018-08-23T18:24:38.109Z,3.20
2018-08-23T18:27:06.338Z,3.05
2018-08-23T18:29:34.559Z,3.45
2018-08-23T18:32:02.843Z,3.12
2018-08-23T18:34:31.040Z,3.70
2018-08-23T18:36:59.328Z,3.30
2018-08-23T18:39:27.565Z,3.35
2018-08-23T18:41:55.773Z,3.70
2018-08-23T18:44:24.008Z,3.72
2018-08-23T18:46:52.231Z,3.20
2018-08-23T18:49:20.478Z,3.67
2018-08-23T18:51:48.715Z,3.95
2018-08-23T18:54:17.002Z,3.45
2018-08-23T18:56:45.205Z,3.90
2018-08-23T18:59:13.466Z,3.52
2018-08-23T19:01:41.706Z,4.28
2018-08-23T19:04:09.939Z,3.77
2018-08-23T19:06:38.993Z,3.58
2018-08-23T19:09:10.559Z,3.70
2018-08-23T19:11:38.803Z,4.10
2018-08-23T19:14:07.111Z,3.30
2018-08-23T19:16:40.726Z,3.62
2018-08-23T19:19:08.983Z,3.65
2018-08-23T19:21:37.413Z,3.70
2018-08-23T19:24:05.642Z,4.35
2018-08-23T19:26:33.915Z,4.22
2018-08-23T19:29:02.146Z,4.33
2018-08-23T19:31:30.447Z,3.98
2018-08-23T19:33:58.568Z,3.95
2018-08-23T19:36:26.857Z,4.00
2018-08-23T19:38:55.092Z,3.80
2018-08-23T19:41:23.299Z,4.10
2018-08-23T19:43:51.525Z,4.67
2018-08-23T19:46:31.713Z,4.55
2018-08-23T19:49:05.326Z,5.45
2018-08-23T19:51:33.537Z,5.65
2018-08-23T19:54:01.855Z,5.10
2018-08-23T19:56:30.115Z,5.42
2018-08-23T19:58:58.327Z,5.00
2018-08-23T20:01:26.565Z,5.03
2018-08-23T20:03:54.778Z,4.50
2018-08-23T20:06:23.013Z,4.92
2018-08-23T20:08:51.201Z,4.87
2018-08-23T20:11:19.522Z,5.35
2018-08-23T20:13:47.763Z,5.30
2018-08-23T20:16:16.000Z,4.85
2018-08-23T20:18:44.249Z,4.72
2018-08-23T20:21:12.454Z,5.10
2018-08-23T20:23:40.736Z,5.30
2018-08-23T20:26:08.975Z,4.92
2018-08-23T20:28:37.272Z,4.92
2018-08-23T20:31:05.518Z,5.17
2018-08-23T20:33:33.749Z,5.33
2018-08-23T20:36:02.020Z,4.97
2018-08-23T20:38:30.299Z,4.62
2018-08-23T20:40:58.524Z,4.35
2018-08-23T20:43:26.821Z,4.97
2018-08-23T20:45:55.040Z,4.90
2018-08-23T20:48:23.311Z,5.37
2018-08-23T20:50:51.562Z,5.83
2018-08-23T20:53:19.812Z,5.03
2018-08-23T20:55:48.050Z,5.95
2018-08-23T20:58:16.347Z,6.25
2018-08-23T21:00:44.497Z,5.12
2018-08-23T21:03:12.714Z,5.85
2018-08-23T21:05:40.932Z,5.37
2018-08-23T21:08:09.178Z,5.55
2018-08-23T21:10:44.017Z,4.40
2018-08-23T21:13:12.306Z,4.80
2018-08-23T21:15:40.556Z,5.37
2018-08-23T21:18:10.644Z,4.83
2018-08-23T21:20:39.371Z,5.35
2018-08-23T21:23:07.838Z,4.80
2018-08-23T21:25:36.092Z,4.85
2018-08-23T21:28:04.336Z,4.92
2018-08-23T21:30:32.579Z,5.40
2018-08-23T21:33:00.980Z,5.22
2018-08-23T21:35:29.500Z,4.53
2018-08-23T21:37:57.778Z,5.05
2018-08-23T21:40:26.519Z,4.55
2018-08-23T21:42:54.750Z,4.70
2018-08-23T21:45:22.980Z,5.08
2018-08-23T21:47:51.209Z,4.67
2018-08-23T21:50:19.615Z,5.28
2018-08-23T21:52:48.285Z,4.70
2018-08-23T21:55:16.553Z,5.65
2018-08-23T21:57:45.003Z,5.22
2018-08-23T22:00:13.359Z,5.45
2018-08-23T22:02:41.581Z,5.42
2018-08-23T22:05:09.895Z,4.80
2018-08-23T22:07:38.180Z,4.67
2018-08-23T22:10:06.588Z,4.95
2018-08-23T22:12:35.236Z,4.60
2018-08-23T22:15:03.950Z,5.12
2018-08-23T22:17:32.191Z,5.30
2018-08-23T22:20:00.508Z,4.17
2018-08-23T22:22:28.765Z,4.08
2018-08-23T22:24:57.050Z,4.33
2018-08-23T22:27:25.314Z,4.83
2018-08-23T22:29:53.503Z,4.28
2018-08-23T22:32:22.200Z,4.17
2018-08-23T22:34:50.467Z,4.10
2018-08-23T22:37:19.007Z,4.12
2018-08-23T22:39:47.248Z,4.58
2018-08-23T22:42:15.681Z,4.80
2018-08-23T22:44:43.944Z,4.45
2018-08-23T22:47:12.192Z,4.47
2018-08-23T22:49:40.441Z,4.80
2018-08-23T22:52:08.723Z,4.55
2018-08-23T22:54:36.956Z,4.30
2018-08-23T22:57:05.272Z,4.15
2018-08-23T22:59:33.999Z,4.47
2018-08-23T23:02:02.630Z,4.17
2018-08-23T23:04:30.873Z,4.20
2018-08-23T23:06:59.452Z,4.37
2018-08-23T23:09:27.706Z,4.40
2018-08-23T23:11:56.515Z,5.20
2018-08-23T23:14:25.268Z,4.90
2018-08-23T23:16:54.736Z,5.35
2018-08-23T23:19:24.076Z,5.03
2018-08-23T23:21:53.005Z,5.30
2018-08-23T23:24:26.733Z,4.72
2018-08-23T23:26:56.628Z,4.70
2018-08-23T23:29:25.393Z,5.03
2018-08-23T23:31:53.645Z,4.45
2018-08-23T23:34:21.864Z,4.47
2018-08-23T23:36:50.501Z,4.90
2018-08-23T23:39:19.051Z,4.72
2018-08-23T23:41:47.300Z,4.85
2018-08-23T23:44:15.527Z,4.87
2018-08-23T23:46:43.752Z,5.17
2018-08-23T23:49:12.004Z,5.42
2018-08-23T23:51:40.672Z,5.90
2018-08-23T23:54:09.233Z,5.97
2018-08-23T23:56:37.472Z,5.53
2018-08-23T23:59:06.084Z,5.40
